Detall de PIREP

Printer-friendly versionPDF version

[2012/08/17 13:52:00]
Flight IATA:CT0001
Pilot Number:044
Company ICAO:CAT
Aircraft Type:BE20/A
PAX:4
Departing Airport: LEVC
Destination Airport: LEBL
Alternate Airport:LERS
Online: VATSIM
Route:TATOS A34 CASPE
Flight Level:F160
No Slew and time accel
No pause
Crash detect
Detect pilot in Cockpit between each 30 and 45 minutes
13:52 Zero fuel Weight: 8738 Lbs, Fuel Weight: 3617 Lbs
13:52 VATSIM:LEVC 171330Z 10009KT 050V140 CAVOK 30/21 Q1016 NOSIG
13:52 VATSIM:LEBL 171330Z 11006KT 080V170 9999 FEW015 28/23 Q1017 NOSIG
13:52 VOICE CATALONIAN
13:53 Parking Brakes off
14:06 Take-off
14:06 Take off Weight: 12318 Lbs
14:06 Wind: 119º @ 009 Knots Heading: 114º
14:06 POS N39º 29´ 32´´ W000º 29´ 24´´
14:06 Gear Up: 126 Knots
14:06 Flaps:1 at 126 Knots
14:06 Flaps:0 at 129 Knots
14:21 Wind:102º@027 Knots Heading: 022º Ground Speed: 221 Knots Altitude 15032 ft
14:21 TOC
14:21 Fuel Weight: 3355 Lb
14:36 Wind:112º@025 Knots Heading: 021º Ground Speed: 276 Knots Altitude 16056 ft
14:38 TOD
14:38 Fuel Weight: 3149 Lb
14:51 Wind:148º@013 Knots Heading: 088º Ground Speed: 204 Knots Altitude 10075 ft
15:06 Wind:119º@021 Knots Heading: 122º Ground Speed: 183 Knots Altitude 4783 ft
15:09 Gear Down: 157 Knots
15:10 Flaps:1 at 154 Knots
15:11 Flaps:2 at 136 Knots
15:12 Flaps:1 at 113 Knots
15:16 Gear Up: 132 Knots
15:16 Flaps:0 at 132 Knots
15:21 Wind:119º@009 Knots Heading: 008º Ground Speed: 149 Knots Altitude 2998 ft
15:23 Gear Down: 153 Knots
15:23 Flaps:1 at 152 Knots
15:26 Flaps:2 at 135 Knots
15:29 TouchDown:Rate -110 ft/min Speed: 105 Knots
15:29 VATSIM:LEBL 171500Z 11005KT 060V200 9999 FEW012 29/23 Q1017 NOSIG
15:29 Land
15:29 Wind:121º@005 Knots
15:29 Heading: 065º
15:29 Flight Duration: 01:23
15:29 Landing Weight: 11536 Lbs
15:29 POS N41º 18´ 09´´ E002º 05´ 42´´
15:35 Parking brakes on
15:35 Block to Block Duration: 01:42
15:35 Final Fuel: 2784 Lbls
15:35 Spent Fuel: 833 Lbls
15:35 Flight Length: 278 NM
15:35 TOD Land Length: 148 NM

Exportar CSV

Powered by Drupal - Modified by Danger4k